createdAt,value
2022-10-06T00:02:20.308Z,13.77
2022-10-06T00:04:51.016Z,12.68
2022-10-06T00:07:20.534Z,13.50
2022-10-06T00:09:49.616Z,11.30
2022-10-06T00:12:18.810Z,12.30
2022-10-06T00:14:47.942Z,12.25
2022-10-06T00:17:17.014Z,13.02
2022-10-06T00:19:46.209Z,12.05
2022-10-06T00:22:16.696Z,12.55
2022-10-06T00:24:45.859Z,12.40
2022-10-06T00:27:15.124Z,13.55
2022-10-06T00:29:44.164Z,13.68
2022-10-06T00:32:13.174Z,12.68
2022-10-06T00:34:44.148Z,12.00
2022-10-06T00:37:13.240Z,13.82
2022-10-06T00:39:44.041Z,13.98
2022-10-06T00:42:23.844Z,14.40
2022-10-06T00:44:54.909Z,14.02
2022-10-06T00:47:25.821Z,12.68
2022-10-06T00:49:56.767Z,12.00
2022-10-06T00:52:30.700Z,12.10
2022-10-06T00:55:04.403Z,12.40
2022-10-06T00:57:37.339Z,11.43
2022-10-06T01:00:08.087Z,11.05
2022-10-06T01:02:42.622Z,12.18
2022-10-06T01:05:16.477Z,11.63
2022-10-06T01:07:47.290Z,11.02
2022-10-06T01:10:18.010Z,11.88
2022-10-06T01:12:48.118Z,10.88
2022-10-06T01:15:17.807Z,11.75
2022-10-06T01:20:22.971Z,10.52
2022-10-06T01:22:58.425Z,11.00
2022-10-06T01:25:28.636Z,11.68
2022-10-06T01:27:58.449Z,11.45
2022-10-06T01:30:33.675Z,12.07
2022-10-06T01:33:02.818Z,13.10
2022-10-06T01:35:32.063Z,13.55
2022-10-06T01:38:03.570Z,13.20
2022-10-06T01:40:33.301Z,13.38
2022-10-06T01:43:03.775Z,11.95
2022-10-06T01:45:33.005Z,13.68
2022-10-06T01:48:02.189Z,11.90
2022-10-06T01:50:32.774Z,12.32
2022-10-06T01:53:03.308Z,11.85
2022-10-06T01:55:32.632Z,12.10
2022-10-06T01:58:02.337Z,9.18
2022-10-06T02:00:31.522Z,12.85
2022-10-06T02:03:00.754Z,12.82
2022-10-06T02:05:30.888Z,13.38
2022-10-06T02:10:31.498Z,11.98
2022-10-06T02:13:01.627Z,12.27
2022-10-06T02:15:33.574Z,13.63
2022-10-06T02:18:02.671Z,13.60
2022-10-06T02:20:31.891Z,12.82
2022-10-06T02:23:01.162Z,14.10
2022-10-06T02:25:31.608Z,13.50
2022-10-06T02:28:01.839Z,13.20
2022-10-06T02:31:17.329Z,16.38
2022-10-06T02:33:48.364Z,12.90
2022-10-06T02:36:20.150Z,13.63
2022-10-06T02:38:49.528Z,11.90
2022-10-06T02:41:20.253Z,14.40
2022-10-06T02:43:49.459Z,11.55
2022-10-06T02:46:19.004Z,11.35
2022-10-06T02:48:51.952Z,9.82
2022-10-06T02:51:22.608Z,9.60
2022-10-06T02:53:53.166Z,10.77
2022-10-06T02:56:25.370Z,10.02
2022-10-06T02:58:55.646Z,9.75
2022-10-06T03:01:31.207Z,9.32
2022-10-06T03:04:04.024Z,10.32
2022-10-06T03:06:33.700Z,10.43
2022-10-06T03:09:18.911Z,9.10
2022-10-06T03:11:49.627Z,9.05
2022-10-06T03:14:32.363Z,9.85
2022-10-06T03:17:02.041Z,8.75
2022-10-06T03:19:32.208Z,10.43
2022-10-06T03:22:01.616Z,8.32
2022-10-06T03:24:40.109Z,7.53
2022-10-06T03:27:11.287Z,7.13
2022-10-06T03:29:40.637Z,7.35
2022-10-06T03:32:10.340Z,7.70
2022-10-06T03:34:40.084Z,7.43
2022-10-06T03:37:13.059Z,7.55
2022-10-06T03:39:42.122Z,7.72
2022-10-06T03:42:12.988Z,6.68
2022-10-06T03:44:42.276Z,7.55
2022-10-06T03:47:16.790Z,7.35
2022-10-06T03:49:46.651Z,5.95
2022-10-06T03:52:20.197Z,7.00
2022-10-06T03:54:53.058Z,6.47
2022-10-06T03:57:23.462Z,6.05
2022-10-06T03:59:53.068Z,5.05
2022-10-06T04:02:22.290Z,7.80
2022-10-06T04:04:51.284Z,6.53
2022-10-06T04:07:20.536Z,6.32
2022-10-06T04:09:49.961Z,6.35
2022-10-06T04:12:19.912Z,7.10
2022-10-06T04:14:50.667Z,8.68
2022-10-06T04:17:20.605Z,5.72
2022-10-06T04:19:49.744Z,4.40
2022-10-06T04:22:19.222Z,5.18
2022-10-06T04:24:50.608Z,6.32
2022-10-06T04:27:36.336Z,7.35
2022-10-06T04:30:18.186Z,6.63
2022-10-06T04:32:47.443Z,7.57
2022-10-06T04:35:16.721Z,6.13
2022-10-06T04:37:46.638Z,6.38
2022-10-06T04:40:16.652Z,6.00
2022-10-06T04:42:45.670Z,7.07
2022-10-06T04:45:19.290Z,6.68
2022-10-06T04:47:51.045Z,6.43
2022-10-06T04:50:20.755Z,6.40
2022-10-06T04:53:07.803Z,5.60
2022-10-06T04:55:37.037Z,6.88
2022-10-06T04:58:06.439Z,5.53
2022-10-06T05:00:37.477Z,5.35
2022-10-06T05:03:06.830Z,7.72
2022-10-06T05:05:35.975Z,4.95
2022-10-06T05:08:05.199Z,5.45
2022-10-06T05:13:03.953Z,7.05
2022-10-06T05:15:33.081Z,7.10
2022-10-06T05:20:32.665Z,4.78
2022-10-06T05:23:08.855Z,5.05
2022-10-06T05:25:38.387Z,5.40
2022-10-06T05:28:08.313Z,4.93
2022-10-06T05:30:37.476Z,4.63
2022-10-06T05:33:10.990Z,5.18
2022-10-06T05:35:41.040Z,5.28
2022-10-06T05:38:11.770Z,5.88
2022-10-06T05:40:40.900Z,5.00
2022-10-06T05:43:10.109Z,5.38
2022-10-06T05:45:39.151Z,5.88
2022-10-06T05:50:39.073Z,5.05
2022-10-06T05:53:08.167Z,4.68
2022-10-06T05:55:37.371Z,6.15
2022-10-06T05:58:06.417Z,5.18
2022-10-06T06:00:35.514Z,5.55
2022-10-06T06:03:04.913Z,4.97
2022-10-06T06:05:35.332Z,5.20
2022-10-06T06:08:04.625Z,4.82
2022-10-06T06:10:34.757Z,5.32
2022-10-06T06:13:03.749Z,5.47
2022-10-06T06:16:01.595Z,4.40
2022-10-06T06:18:32.901Z,4.00
2022-10-06T06:21:05.523Z,4.05
2022-10-06T06:23:37.208Z,3.22
2022-10-06T06:26:08.303Z,4.10
2022-10-06T06:28:41.550Z,3.80
2022-10-06T06:31:17.588Z,3.85
2022-10-06T06:33:51.710Z,3.42
2022-10-06T06:36:26.034Z,4.20
2022-10-06T06:38:57.121Z,5.13
2022-10-06T06:41:28.621Z,4.13
2022-10-06T06:44:20.937Z,4.25
2022-10-06T06:46:56.316Z,4.40
2022-10-06T06:49:25.790Z,4.57
2022-10-06T06:52:04.687Z,2.70
2022-10-06T06:54:36.273Z,4.45
2022-10-06T06:57:12.469Z,4.47
2022-10-06T06:59:41.920Z,3.70
2022-10-06T07:02:13.708Z,3.85
2022-10-06T07:04:46.175Z,3.72
2022-10-06T07:07:21.097Z,3.92
2022-10-06T07:09:50.249Z,2.83
2022-10-06T07:12:22.652Z,3.33
2022-10-06T07:15:13.088Z,2.90
2022-10-06T07:18:02.828Z,3.55
2022-10-06T07:20:50.431Z,4.28
2022-10-06T07:23:39.981Z,3.65
2022-10-06T07:26:14.000Z,2.47
2022-10-06T07:28:44.624Z,3.40
2022-10-06T07:31:17.642Z,3.00
2022-10-06T07:33:48.489Z,3.15
2022-10-06T07:36:18.464Z,2.92
2022-10-06T07:38:49.405Z,2.38
2022-10-06T07:41:20.241Z,3.00
2022-10-06T07:43:54.775Z,2.78
2022-10-06T07:46:25.367Z,2.72
2022-10-06T07:49:21.421Z,3.10
2022-10-06T07:51:51.120Z,2.63
2022-10-06T07:54:26.570Z,3.10
2022-10-06T07:57:35.429Z,3.17
2022-10-06T08:00:07.442Z,3.00
2022-10-06T08:02:43.521Z,2.20
2022-10-06T08:07:41.618Z,2.08
2022-10-06T08:10:12.386Z,1.30
2022-10-06T08:12:41.838Z,1.40
2022-10-06T08:15:13.746Z,2.15
2022-10-06T08:17:43.086Z,1.75
2022-10-06T08:20:18.389Z,1.80
2022-10-06T08:22:49.676Z,1.95
2022-10-06T08:25:20.416Z,1.67
2022-10-06T08:27:53.403Z,1.70
2022-10-06T08:30:27.227Z,1.45
2022-10-06T08:32:58.489Z,1.33
2022-10-06T08:35:29.086Z,2.53
2022-10-06T08:37:58.364Z,1.40
2022-10-06T08:43:02.380Z,1.50
2022-10-06T08:45:38.585Z,1.10
2022-10-06T08:48:14.363Z,1.60
2022-10-06T08:50:54.155Z,1.35
2022-10-06T08:53:29.388Z,1.30
2022-10-06T08:56:07.503Z,1.05
2022-10-06T08:58:47.496Z,1.00
2022-10-06T09:01:19.832Z,1.30
2022-10-06T09:03:52.343Z,1.98
2022-10-06T09:06:38.173Z,0.80
2022-10-06T09:09:18.513Z,1.90
2022-10-06T09:12:00.088Z,0.77
2022-10-06T09:14:37.597Z,1.75
2022-10-06T09:17:12.034Z,1.42
2022-10-06T09:19:46.101Z,1.40
2022-10-06T09:22:20.735Z,1.30
2022-10-06T09:24:55.159Z,1.40
2022-10-06T09:27:29.822Z,1.23
2022-10-06T09:29:59.878Z,1.60
2022-10-06T09:32:31.897Z,0.90
2022-10-06T09:35:02.707Z,1.30
2022-10-06T09:37:53.767Z,1.33
2022-10-06T09:40:37.535Z,2.22
2022-10-06T09:43:18.418Z,1.15
2022-10-06T09:45:47.843Z,1.65
2022-10-06T09:48:24.999Z,2.55
2022-10-06T09:51:10.219Z,1.15
2022-10-06T09:53:39.973Z,1.02
2022-10-06T09:56:18.817Z,1.65
2022-10-06T09:58:58.139Z,0.82
2022-10-06T10:01:29.514Z,1.70
2022-10-06T10:04:19.291Z,1.88
2022-10-06T10:06:49.176Z,1.30
2022-10-06T10:12:28.734Z,1.35
2022-10-06T10:15:03.590Z,1.90
2022-10-06T10:17:44.115Z,1.08
2022-10-06T10:20:30.215Z,1.75
2022-10-06T10:23:01.621Z,1.58
2022-10-06T10:25:59.652Z,2.58
2022-10-06T10:28:52.271Z,1.17
2022-10-06T10:31:32.170Z,1.27
2022-10-06T10:34:23.959Z,0.80
2022-10-06T10:36:57.890Z,1.92
2022-10-06T10:39:34.757Z,1.08
2022-10-06T10:42:13.115Z,1.02
2022-10-06T10:44:51.024Z,1.55
2022-10-06T10:47:27.508Z,1.58
2022-10-06T10:50:04.052Z,1.52
2022-10-06T10:52:41.416Z,1.98
2022-10-06T10:55:23.306Z,0.82
2022-10-06T10:57:54.318Z,1.70
2022-10-06T11:00:28.202Z,2.08
2022-10-06T11:03:02.291Z,1.35
2022-10-06T11:05:45.156Z,0.82
2022-10-06T11:08:25.327Z,1.77
2022-10-06T11:10:59.075Z,1.00
2022-10-06T11:13:37.399Z,1.67
2022-10-06T11:16:19.746Z,1.80
2022-10-06T11:19:15.282Z,1.55
2022-10-06T11:21:52.078Z,1.50
2022-10-06T11:24:32.280Z,1.52
2022-10-06T11:27:28.624Z,1.90
2022-10-06T11:30:07.591Z,1.63
2022-10-06T11:33:04.807Z,1.83
2022-10-06T11:35:38.372Z,2.05
2022-10-06T11:38:16.902Z,1.20
2022-10-06T11:41:09.924Z,1.42
2022-10-06T11:43:47.506Z,1.50
2022-10-06T11:46:31.127Z,1.20
2022-10-06T11:49:39.503Z,1.52
2022-10-06T11:52:50.780Z,2.67
2022-10-06T11:55:26.398Z,1.15
2022-10-06T11:58:23.800Z,1.13
2022-10-06T12:00:58.204Z,1.42
2022-10-06T12:03:48.851Z,1.23
2022-10-06T12:06:53.572Z,1.70
2022-10-06T12:09:46.185Z,1.65
2022-10-06T12:13:01.906Z,1.02
2022-10-06T12:18:49.793Z,0.90
2022-10-06T12:21:47.076Z,1.58
2022-10-06T12:24:41.454Z,2.15
2022-10-06T12:27:33.375Z,2.72
2022-10-06T12:30:16.909Z,1.52
2022-10-06T12:32:51.197Z,1.83
2022-10-06T12:35:26.544Z,1.48
2022-10-06T12:37:58.349Z,1.35
2022-10-06T12:40:46.697Z,1.80
2022-10-06T12:43:33.226Z,1.60
2022-10-06T12:46:07.723Z,1.40
2022-10-06T12:48:42.783Z,1.75
2022-10-06T12:51:25.304Z,1.52
2022-10-06T12:54:04.146Z,1.58
2022-10-06T12:56:35.192Z,1.58
2022-10-06T12:59:21.404Z,1.40
2022-10-06T13:01:54.799Z,1.33
2022-10-06T13:04:40.579Z,1.45
2022-10-06T13:07:19.741Z,2.28
2022-10-06T13:09:51.137Z,1.23
2022-10-06T13:12:29.695Z,2.28
2022-10-06T13:15:23.474Z,2.60
2022-10-06T13:17:57.472Z,1.50
2022-10-06T13:20:37.954Z,1.50
2022-10-06T13:23:27.171Z,1.98
2022-10-06T13:25:58.877Z,1.92
2022-10-06T13:28:46.869Z,2.45
2022-10-06T13:31:21.549Z,1.70
2022-10-06T13:33:56.444Z,1.92
2022-10-06T13:36:26.172Z,1.00
2022-10-06T13:38:55.556Z,2.90
2022-10-06T13:44:02.438Z,1.70
2022-10-06T13:46:33.783Z,1.40
2022-10-06T13:49:15.095Z,1.90
2022-10-06T13:51:49.386Z,2.00
2022-10-06T13:54:26.421Z,2.78
2022-10-06T13:56:55.905Z,1.60
2022-10-06T13:59:32.372Z,1.42
2022-10-06T14:02:21.554Z,1.85
2022-10-06T14:05:24.480Z,1.10
2022-10-06T14:07:58.013Z,1.05
2022-10-06T14:10:32.625Z,1.45
2022-10-06T14:13:03.081Z,1.38
2022-10-06T14:15:40.222Z,1.90
2022-10-06T14:18:18.349Z,1.98
2022-10-06T14:20:49.493Z,2.47
2022-10-06T14:23:41.516Z,1.20
2022-10-06T14:26:13.011Z,2.78
2022-10-06T14:28:47.129Z,1.58
2022-10-06T14:31:17.042Z,2.70
2022-10-06T14:33:47.065Z,1.98
2022-10-06T14:36:20.085Z,2.55
2022-10-06T14:38:52.544Z,1.73
2022-10-06T14:41:27.661Z,1.88
2022-10-06T14:43:58.871Z,1.90
2022-10-06T14:46:28.108Z,1.65
2022-10-06T14:48:57.682Z,1.80
2022-10-06T14:51:29.269Z,1.95
2022-10-06T14:54:01.973Z,1.23
2022-10-06T14:56:33.594Z,1.85
2022-10-06T14:59:05.893Z,1.77
2022-10-06T15:01:36.812Z,1.52
2022-10-06T15:04:08.837Z,1.38
2022-10-06T15:06:55.442Z,2.03
2022-10-06T15:09:26.465Z,2.65
2022-10-06T15:11:56.214Z,1.85
2022-10-06T15:14:25.630Z,1.67
2022-10-06T15:19:23.819Z,1.40
2022-10-06T15:21:53.015Z,2.10
2022-10-06T15:24:22.224Z,1.63
2022-10-06T15:27:10.447Z,2.03
2022-10-06T15:29:39.749Z,3.33
2022-10-06T15:32:09.513Z,1.40
2022-10-06T15:34:38.699Z,2.00
2022-10-06T15:37:08.521Z,2.30
2022-10-06T15:39:38.484Z,1.92
2022-10-06T15:42:09.638Z,2.05
2022-10-06T15:44:39.236Z,3.03
2022-10-06T15:47:08.777Z,2.85
2022-10-06T15:49:41.628Z,2.60
2022-10-06T15:52:13.650Z,1.70
2022-10-06T15:54:43.819Z,1.83
2022-10-06T15:57:20.675Z,2.42
2022-10-06T15:59:50.400Z,2.63
2022-10-06T16:02:20.661Z,2.72
2022-10-06T16:05:28.100Z,2.80
2022-10-06T16:07:57.251Z,3.05
2022-10-06T16:10:26.248Z,4.05
2022-10-06T16:12:56.616Z,2.72
2022-10-06T16:15:25.773Z,2.22
2022-10-06T16:20:23.845Z,2.20
2022-10-06T16:22:53.060Z,2.90
2022-10-06T16:25:22.028Z,3.13
2022-10-06T16:27:51.496Z,4.25
2022-10-06T16:30:22.075Z,3.03
2022-10-06T16:32:51.163Z,3.13
2022-10-06T16:37:50.064Z,2.40
2022-10-06T16:40:19.275Z,2.30
2022-10-06T16:42:48.428Z,2.22
2022-10-06T16:45:17.593Z,1.63
2022-10-06T16:47:48.794Z,2.60
2022-10-06T16:50:18.338Z,2.45
2022-10-06T16:52:47.688Z,3.25
2022-10-06T17:00:16.597Z,4.00
2022-10-06T17:02:49.423Z,3.35
2022-10-06T17:05:18.664Z,3.85
2022-10-06T17:07:47.879Z,3.15
2022-10-06T17:10:20.488Z,3.53
2022-10-06T17:12:50.496Z,4.90
2022-10-06T17:17:50.025Z,4.03
2022-10-06T17:20:19.367Z,3.58
2022-10-06T17:22:48.636Z,4.60
2022-10-06T17:25:18.387Z,3.47
2022-10-06T17:27:47.716Z,5.75
2022-10-06T17:30:16.877Z,3.25
2022-10-06T17:32:47.083Z,3.85
2022-10-06T17:35:19.854Z,3.85
2022-10-06T17:37:50.269Z,4.15
2022-10-06T17:40:19.884Z,3.63
2022-10-06T17:42:50.258Z,3.38
2022-10-06T17:45:21.443Z,3.72
2022-10-06T17:47:51.839Z,5.18
2022-10-06T17:50:22.181Z,3.28
2022-10-06T17:52:52.728Z,3.53
2022-10-06T17:55:22.617Z,3.30
2022-10-06T17:57:51.972Z,3.25
2022-10-06T18:00:21.969Z,3.15
2022-10-06T18:03:00.349Z,2.95
2022-10-06T18:05:33.144Z,3.08
2022-10-06T18:08:05.426Z,3.03
2022-10-06T18:10:52.734Z,4.72
2022-10-06T18:13:23.554Z,7.28
2022-10-06T18:15:52.703Z,5.13
2022-10-06T18:18:25.341Z,3.15
2022-10-06T18:21:03.863Z,4.28
2022-10-06T18:23:36.860Z,4.90
2022-10-06T18:26:06.589Z,7.18
2022-10-06T18:28:35.628Z,6.05
2022-10-06T18:31:04.675Z,9.95
2022-10-06T18:36:25.301Z,10.88
2022-10-06T18:38:55.837Z,8.02
2022-10-06T18:41:27.376Z,7.30
2022-10-06T18:43:57.082Z,6.82
2022-10-06T18:49:15.838Z,4.63
2022-10-06T18:51:51.075Z,3.25
2022-10-06T18:54:24.010Z,5.47
2022-10-06T18:56:53.119Z,5.93
2022-10-06T18:59:26.204Z,4.38
2022-10-06T19:01:57.890Z,7.00
2022-10-06T19:04:27.511Z,8.77
2022-10-06T19:06:58.184Z,8.77
2022-10-06T19:09:27.643Z,8.20
2022-10-06T19:11:58.871Z,6.90
2022-10-06T19:14:31.806Z,7.28
2022-10-06T19:17:03.702Z,7.07
2022-10-06T19:19:34.496Z,5.38
2022-10-06T19:22:06.539Z,4.97
2022-10-06T19:24:39.851Z,6.60
2022-10-06T19:27:12.516Z,4.25
2022-10-06T19:29:46.226Z,5.32
2022-10-06T19:32:17.741Z,4.13
2022-10-06T19:34:48.596Z,4.72
2022-10-06T19:37:20.105Z,4.00
2022-10-06T19:39:50.722Z,4.70
2022-10-06T19:42:39.791Z,4.22
2022-10-06T19:45:12.405Z,4.70
2022-10-06T19:47:44.766Z,4.10
2022-10-06T19:50:15.738Z,4.40
2022-10-06T19:52:47.063Z,4.32
2022-10-06T19:55:17.049Z,5.57
2022-10-06T19:57:47.179Z,4.80
2022-10-06T20:00:21.143Z,4.88
2022-10-06T20:02:51.126Z,4.95
2022-10-06T20:05:20.625Z,5.18
2022-10-06T20:07:50.998Z,5.75
2022-10-06T20:10:21.557Z,3.67
2022-10-06T20:12:50.526Z,5.03
2022-10-06T20:15:19.978Z,3.35
2022-10-06T20:20:18.925Z,3.83
2022-10-06T20:22:49.796Z,3.53
2022-10-06T20:25:20.569Z,3.78
2022-10-06T20:27:50.284Z,3.60
2022-10-06T20:30:19.538Z,3.38
2022-10-06T20:35:17.873Z,3.30
2022-10-06T20:37:47.092Z,4.60
2022-10-06T20:43:04.771Z,3.30
2022-10-06T20:45:34.022Z,3.42
2022-10-06T20:48:03.157Z,2.92
2022-10-06T20:50:32.610Z,3.65
2022-10-06T20:53:01.577Z,3.40
2022-10-06T20:55:30.535Z,2.97
2022-10-06T20:57:59.721Z,3.63
2022-10-06T21:00:30.105Z,3.63
2022-10-06T21:02:59.498Z,4.25
2022-10-06T21:05:31.941Z,3.90
2022-10-06T21:08:01.947Z,4.30
2022-10-06T21:10:30.967Z,3.63
2022-10-06T21:13:00.887Z,3.60
2022-10-06T21:15:31.518Z,3.55
2022-10-06T21:18:00.788Z,3.80
2022-10-06T21:20:29.885Z,3.97
2022-10-06T21:22:59.086Z,4.00
2022-10-06T21:25:28.078Z,3.10
2022-10-06T21:27:57.330Z,4.20
2022-10-06T21:30:26.748Z,4.07
2022-10-06T21:32:57.738Z,4.13
2022-10-06T21:35:27.080Z,2.80
2022-10-06T21:37:56.494Z,2.97
2022-10-06T21:40:25.556Z,4.15
2022-10-06T21:42:54.579Z,3.67
2022-10-06T21:45:24.944Z,2.88
2022-10-06T21:47:56.414Z,3.30
2022-10-06T21:50:25.641Z,3.88
2022-10-06T21:52:54.653Z,2.70
2022-10-06T21:55:23.880Z,3.22
2022-10-06T21:57:52.908Z,3.03
2022-10-06T22:00:22.017Z,3.17
2022-10-06T22:02:51.450Z,2.38
2022-10-06T22:05:22.156Z,3.40
2022-10-06T22:07:51.177Z,2.63
2022-10-06T22:10:20.369Z,3.10
2022-10-06T22:12:49.421Z,2.63
2022-10-06T22:15:18.554Z,2.72
2022-10-06T22:17:48.634Z,3.15
2022-10-06T22:20:17.740Z,3.03
2022-10-06T22:22:48.162Z,2.95
2022-10-06T22:25:17.658Z,3.15
2022-10-06T22:27:46.876Z,3.00
2022-10-06T22:30:16.013Z,3.53
2022-10-06T22:32:45.256Z,2.15
2022-10-06T22:35:14.419Z,2.22
2022-10-06T22:37:43.564Z,2.58
2022-10-06T22:40:14.542Z,3.08
2022-10-06T22:42:43.549Z,3.42
2022-10-06T22:45:12.713Z,2.95
2022-10-06T22:47:42.286Z,3.35
2022-10-06T22:52:40.308Z,3.00
2022-10-06T22:55:10.162Z,2.95
2022-10-06T22:57:42.219Z,2.40
2022-10-06T23:00:12.797Z,2.05
2022-10-06T23:02:41.984Z,2.97
2022-10-06T23:05:11.014Z,2.83
2022-10-06T23:07:40.245Z,3.10
2022-10-06T23:10:10.349Z,2.72
2022-10-06T23:12:40.976Z,2.15
2022-10-06T23:15:13.819Z,2.83
2022-10-06T23:17:43.591Z,2.47
2022-10-06T23:20:13.389Z,2.40
2022-10-06T23:25:12.204Z,2.25
2022-10-06T23:27:43.148Z,2.58
2022-10-06T23:30:13.137Z,2.47
2022-10-06T23:32:42.439Z,2.47
2022-10-06T23:35:12.717Z,3.13
2022-10-06T23:37:42.060Z,2.45
2022-10-06T23:40:12.119Z,3.40
2022-10-06T23:42:42.673Z,2.65
2022-10-06T23:45:12.252Z,2.28
2022-10-06T23:47:41.698Z,2.38
2022-10-06T23:50:11.379Z,2.20
2022-10-06T23:52:41.522Z,2.05
2022-10-06T23:55:10.829Z,2.85
2022-10-06T23:57:41.714Z,2.78
